Time;durP1;ratioP1;P1;durP2;ratioP2;P2;SDS_P1;SDS_P2;PMS_P1;PMS_P2;Temp;Humidity;BMP_temperature;BMP_pressure;BME280_temperature;BME280_humidity;BME280_pressure;Samples;Min_cycle;Max_cycle;Signal;HPM_P1;HPM_P2
2022/10/31 00:00:20;;;;;;;10.73;5.25;;;;;;;;;;5057578;28;20075;-77
2022/10/31 00:02:46;;;;;;;9.20;4.57;;;;;;;;;;5058953;28;20053;-77
2022/10/31 00:05:12;;;;;;;7.82;4.55;;;;;;;;;;5034659;28;20067;-78
2022/10/31 00:07:38;;;;;;;11.85;6.10;;;;;;;;;;5059340;28;22066;-78
2022/10/31 00:10:05;;;;;;;8.52;4.63;;;;;;;;;;5058333;28;20044;-77
2022/10/31 00:12:31;;;;;;;7.78;4.60;;;;;;;;;;5058509;28;20045;-77
2022/10/31 00:14:57;;;;;;;9.75;4.93;;;;;;;;;;5033862;28;20435;-77
2022/10/31 00:17:23;;;;;;;9.15;4.32;;;;;;;;;;5057646;28;20037;-77
2022/10/31 00:19:49;;;;;;;6.97;5.43;;;;;;;;;;5056793;28;20072;-77
2022/10/31 00:22:15;;;;;;;7.15;5.68;;;;;;;;;;5057325;28;20041;-77
2022/10/31 00:24:41;;;;;;;9.25;4.28;;;;;;;;;;5033380;28;20191;-77
2022/10/31 00:27:07;;;;;;;6.05;4.28;;;;;;;;;;5058570;28;20132;-77
2022/10/31 00:29:33;;;;;;;6.90;4.00;;;;;;;;;;5039809;28;20079;-78
2022/10/31 00:31:59;;;;;;;8.98;5.22;;;;;;;;;;5034316;28;20634;-77
2022/10/31 00:34:26;;;;;;;8.30;4.68;;;;;;;;;;5057446;28;20049;-77
2022/10/31 00:36:52;;;;;;;10.15;5.15;;;;;;;;;;5059197;28;20955;-78
2022/10/31 00:39:18;;;;;;;8.48;4.75;;;;;;;;;;5058418;28;20033;-78
2022/10/31 00:41:44;;;;;;;5.80;4.10;;;;;;;;;;5058108;28;20045;-77
2022/10/31 00:44:10;;;;;;;6.70;4.05;;;;;;;;;;5032945;28;20037;-78
2022/10/31 00:46:36;;;;;;;8.35;5.35;;;;;;;;;;5058749;28;20171;-77
2022/10/31 00:49:02;;;;;;;6.25;3.42;;;;;;;;;;5055802;28;20041;-78
2022/10/31 00:51:28;;;;;;;6.95;4.60;;;;;;;;;;5058100;28;20045;-78
2022/10/31 00:53:54;;;;;;;7.13;4.28;;;;;;;;;;5057912;28;20051;-78
2022/10/31 00:56:20;;;;;;;9.18;5.32;;;;;;;;;;5059239;28;20040;-77
2022/10/31 00:58:46;;;;;;;7.13;4.60;;;;;;;;;;5040227;28;20041;-78
2022/10/31 01:01:12;;;;;;;7.15;5.03;;;;;;;;;;5057595;28;20053;-77
2022/10/31 01:03:39;;;;;;;8.02;5.32;;;;;;;;;;5057519;28;20056;-78
2022/10/31 01:06:09;;;;;;;9.10;5.55;;;;;;;;;;5058421;28;20075;-77
2022/10/31 01:08:36;;;;;;;9.13;4.90;;;;;;;;;;5058224;28;20033;-78
2022/10/31 01:11:13;;;;;;;8.10;4.35;;;;;;;;;;5057983;28;20082;-78
2022/10/31 01:13:39;;;;;;;7.28;4.38;;;;;;;;;;5038964;28;20037;-78
2022/10/31 01:16:06;;;;;;;7.70;4.53;;;;;;;;;;5032547;28;20655;-77
2022/10/31 01:18:32;;;;;;;8.85;5.82;;;;;;;;;;5055561;28;20040;-77
2022/10/31 01:21:05;;;;;;;7.85;4.47;;;;;;;;;;5056178;28;20029;-78
2022/10/31 01:23:31;;;;;;;4.82;3.38;;;;;;;;;;5057529;28;20045;-78
2022/10/31 01:26:01;;;;;;;9.18;5.05;;;;;;;;;;5057199;28;20047;-77
2022/10/31 01:28:27;;;;;;;6.03;2.97;;;;;;;;;;5032139;28;20510;-78
2022/10/31 01:30:54;;;;;;;7.82;3.30;;;;;;;;;;5057882;28;20131;-78
2022/10/31 01:33:20;;;;;;;4.88;2.63;;;;;;;;;;5038044;28;20041;-77
2022/10/31 01:35:46;;;;;;;6.50;2.95;;;;;;;;;;5032797;28;20036;-77
2022/10/31 01:38:12;;;;;;;7.57;2.90;;;;;;;;;;5056663;28;20037;-78
2022/10/31 01:40:38;;;;;;;5.18;3.35;;;;;;;;;;5056906;28;20045;-77
2022/10/31 01:43:04;;;;;;;5.65;2.58;;;;;;;;;;5058360;28;20041;-78
2022/10/31 01:45:30;;;;;;;3.85;2.25;;;;;;;;;;5054657;28;20045;-78
2022/10/31 01:47:56;;;;;;;4.57;2.55;;;;;;;;;;5055384;28;20600;-78
2022/10/31 01:50:34;;;;;;;3.88;2.35;;;;;;;;;;5057784;28;20049;-78
2022/10/31 01:53:01;;;;;;;4.93;2.58;;;;;;;;;;5032302;28;20044;-78
2022/10/31 01:55:30;;;;;;;4.03;2.45;;;;;;;;;;5058420;28;20497;-78
2022/10/31 01:57:59;;;;;;;4.13;2.35;;;;;;;;;;5056790;28;20534;-78
2022/10/31 02:00:25;;;;;;;5.38;2.97;;;;;;;;;;5032466;28;20091;-78
2022/10/31 02:02:51;;;;;;;5.30;2.33;;;;;;;;;;5057166;28;20045;-78
2022/10/31 02:05:22;;;;;;;4.72;2.20;;;;;;;;;;5057248;28;20041;-78
2022/10/31 02:08:00;;;;;;;4.60;2.30;;;;;;;;;;5032080;28;20045;-77
2022/10/31 02:10:27;;;;;;;4.18;2.35;;;;;;;;;;5057040;28;20671;-77
2022/10/31 02:12:55;;;;;;;4.90;2.60;;;;;;;;;;5056731;28;20434;-77
2022/10/31 02:15:21;;;;;;;6.18;2.80;;;;;;;;;;5057349;28;20037;-78
2022/10/31 02:17:48;;;;;;;9.57;2.58;;;;;;;;;;5054983;28;20041;-77
2022/10/31 02:20:14;;;;;;;4.32;2.15;;;;;;;;;;5056478;28;20052;-77
2022/10/31 02:22:49;;;;;;;25.02;3.75;;;;;;;;;;5056327;28;20037;-77
2022/10/31 02:25:18;;;;;;;4.45;2.50;;;;;;;;;;5039994;28;20083;-77
2022/10/31 02:27:47;;;;;;;5.75;2.40;;;;;;;;;;5038195;28;20088;-78
2022/10/31 02:30:19;;;;;;;2.88;1.90;;;;;;;;;;5054903;28;20103;-78
2022/10/31 02:32:51;;;;;;;4.38;2.28;;;;;;;;;;5058390;28;20037;-78
2022/10/31 02:35:33;;;;;;;4.35;1.98;;;;;;;;;;5058678;28;20178;-78
2022/10/31 02:38:18;;;;;;;5.80;2.50;;;;;;;;;;5059508;28;20049;-78
2022/10/31 02:40:44;;;;;;;4.40;2.40;;;;;;;;;;5060170;28;20041;-78
2022/10/31 02:43:19;;;;;;;3.95;2.47;;;;;;;;;;5058553;28;20094;-78
2022/10/31 02:45:49;;;;;;;7.13;2.78;;;;;;;;;;5058181;28;20037;-78
2022/10/31 02:48:17;;;;;;;4.40;1.92;;;;;;;;;;5059036;28;20515;-78
2022/10/31 02:50:49;;;;;;;6.07;3.17;;;;;;;;;;5041135;28;20040;-77
2022/10/31 02:53:16;;;;;;;4.80;2.17;;;;;;;;;;5060427;28;20128;-78
2022/10/31 02:55:45;;;;;;;3.80;2.05;;;;;;;;;;5059202;28;20919;-78
2022/10/31 02:58:14;;;;;;;4.82;2.38;;;;;;;;;;5060349;28;20048;-78
2022/10/31 03:00:55;;;;;;;2.78;1.85;;;;;;;;;;5040935;28;20222;-78
2022/10/31 03:03:40;;;;;;;6.05;2.28;;;;;;;;;;5058122;28;20037;-78
2022/10/31 03:06:26;;;;;;;4.20;2.50;;;;;;;;;;5041623;28;20053;-78
2022/10/31 03:09:05;;;;;;;4.32;2.22;;;;;;;;;;5059206;28;20037;-78
2022/10/31 03:11:35;;;;;;;5.43;2.75;;;;;;;;;;5060015;28;20635;-78
2022/10/31 03:14:04;;;;;;;4.72;2.00;;;;;;;;;;5058895;28;20140;-78
2022/10/31 03:16:37;;;;;;;4.63;1.95;;;;;;;;;;5060115;28;20094;-78
2022/10/31 03:19:08;;;;;;;3.67;1.92;;;;;;;;;;5058479;28;20511;-78
2022/10/31 03:21:37;;;;;;;4.93;1.90;;;;;;;;;;5060243;28;20037;-78
2022/10/31 03:24:04;;;;;;;4.80;2.03;;;;;;;;;;5059619;28;20052;-78
2022/10/31 03:26:31;;;;;;;4.20;1.88;;;;;;;;;;5059444;28;20096;-78
2022/10/31 03:29:02;;;;;;;4.75;2.75;;;;;;;;;;5059381;28;20099;-78
2022/10/31 03:31:33;;;;;;;3.05;1.58;;;;;;;;;;5059585;28;20430;-78
2022/10/31 03:34:00;;;;;;;4.45;2.25;;;;;;;;;;5059338;28;20040;-78
2022/10/31 03:36:27;;;;;;;3.17;2.28;;;;;;;;;;5059855;28;20041;-78
2022/10/31 03:38:53;;;;;;;3.53;1.95;;;;;;;;;;5040575;28;20049;-78
2022/10/31 03:41:22;;;;;;;2.97;2.10;;;;;;;;;;5059407;28;20119;-78
2022/10/31 03:44:01;;;;;;;5.75;2.28;;;;;;;;;;5058734;28;20048;-78
2022/10/31 03:46:27;;;;;;;7.20;2.60;;;;;;;;;;5058120;28;20135;-78
2022/10/31 03:48:53;;;;;;;3.80;2.28;;;;;;;;;;5039713;28;20603;-78
2022/10/31 03:51:35;;;;;;;5.03;3.22;;;;;;;;;;5057680;28;20049;-78
2022/10/31 03:54:15;;;;;;;3.20;2.15;;;;;;;;;;5058511;28;20214;-78
2022/10/31 03:56:45;;;;;;;4.53;2.60;;;;;;;;;;5058830;28;20548;-78
2022/10/31 03:59:16;;;;;;;4.18;2.08;;;;;;;;;;5041023;28;20485;-78
2022/10/31 04:01:45;;;;;;;2.60;1.50;;;;;;;;;;5058281;28;20458;-78
2022/10/31 04:04:11;;;;;;;3.88;2.55;;;;;;;;;;5057286;28;20033;-78
2022/10/31 04:06:38;;;;;;;6.47;2.30;;;;;;;;;;5058901;28;20048;-78
2022/10/31 04:09:06;;;;;;;3.08;2.10;;;;;;;;;;5039199;28;20160;-78
2022/10/31 04:11:34;;;;;;;3.85;1.98;;;;;;;;;;5059035;28;20120;-78
2022/10/31 04:14:02;;;;;;;2.67;2.00;;;;;;;;;;5059269;28;20122;-78
2022/10/31 04:16:28;;;;;;;5.07;1.70;;;;;;;;;;5055857;28;20090;-78
2022/10/31 04:18:54;;;;;;;3.85;2.22;;;;;;;;;;5034059;28;20107;-78
2022/10/31 04:21:28;;;;;;;3.00;2.00;;;;;;;;;;5055957;28;20052;-78
2022/10/31 04:23:54;;;;;;;2.78;1.55;;;;;;;;;;5040252;28;20041;-78
2022/10/31 04:26:20;;;;;;;4.15;1.90;;;;;;;;;;5058641;28;20103;-78
2022/10/31 04:28:46;;;;;;;3.15;1.90;;;;;;;;;;5059647;28;20523;-78
2022/10/31 04:31:13;;;;;;;3.30;1.83;;;;;;;;;;5058109;28;20458;-78
2022/10/31 04:33:39;;;;;;;6.90;2.03;;;;;;;;;;5058322;28;20655;-78
2022/10/31 04:36:05;;;;;;;4.53;1.75;;;;;;;;;;5057382;28;20530;-78
2022/10/31 04:38:31;;;;;;;5.22;1.83;;;;;;;;;;5058164;28;20052;-78
2022/10/31 04:40:57;;;;;;;4.30;1.80;;;;;;;;;;5033207;28;20045;-78
2022/10/31 04:43:23;;;;;;;5.72;2.30;;;;;;;;;;5058929;28;20124;-78
2022/10/31 04:45:49;;;;;;;6.38;2.85;;;;;;;;;;5058285;28;20596;-78
2022/10/31 04:48:16;;;;;;;14.77;2.88;;;;;;;;;;5039334;28;20088;-78
2022/10/31 04:50:42;;;;;;;5.00;2.00;;;;;;;;;;5032746;28;20053;-78
2022/10/31 04:53:08;;;;;;;5.50;2.20;;;;;;;;;;5039671;28;20037;-78
2022/10/31 04:55:35;;;;;;;5.35;2.28;;;;;;;;;;5032834;28;20608;-78
2022/10/31 04:58:01;;;;;;;5.22;2.42;;;;;;;;;;5058690;28;20045;-78
2022/10/31 05:00:28;;;;;;;4.90;2.63;;;;;;;;;;5057225;28;20123;-78
2022/10/31 05:02:56;;;;;;;3.50;1.85;;;;;;;;;;5056915;28;20132;-78
2022/10/31 05:05:25;;;;;;;6.78;2.60;;;;;;;;;;5058242;28;20612;-79
2022/10/31 05:07:51;;;;;;;6.03;3.15;;;;;;;;;;5058834;28;20044;-78
2022/10/31 05:10:19;;;;;;;4.80;2.38;;;;;;;;;;5058091;28;20052;-78
2022/10/31 05:12:49;;;;;;;7.55;2.50;;;;;;;;;;5057497;28;20037;-79
2022/10/31 05:15:15;;;;;;;5.28;2.10;;;;;;;;;;5041120;28;20068;-78
2022/10/31 05:17:41;;;;;;;3.95;1.90;;;;;;;;;;5056735;28;20487;-78
2022/10/31 05:20:07;;;;;;;6.53;2.30;;;;;;;;;;5055506;28;20635;-78
2022/10/31 05:22:33;;;;;;;5.88;1.75;;;;;;;;;;5058914;28;20041;-78
2022/10/31 05:24:59;;;;;;;3.72;2.15;;;;;;;;;;5058557;28;20096;-78
2022/10/31 05:27:25;;;;;;;5.72;1.92;;;;;;;;;;5059089;28;20144;-78
2022/10/31 05:29:51;;;;;;;3.92;2.00;;;;;;;;;;5058737;28;20470;-78
2022/10/31 05:32:17;;;;;;;3.03;1.75;;;;;;;;;;5051390;28;20046;-78
2022/10/31 05:34:43;;;;;;;2.75;1.60;;;;;;;;;;5059836;28;20067;-78
2022/10/31 05:37:10;;;;;;;3.97;1.58;;;;;;;;;;5060940;28;20045;-78
2022/10/31 05:39:38;;;;;;;6.90;2.72;;;;;;;;;;5062275;28;20107;-78
2022/10/31 05:42:04;;;;;;;5.40;1.90;;;;;;;;;;5060332;28;20040;-78
2022/10/31 05:44:30;;;;;;;4.68;2.10;;;;;;;;;;5043198;28;21055;-78
2022/10/31 05:46:56;;;;;;;18.38;3.63;;;;;;;;;;5062343;28;20114;-78
2022/10/31 05:49:22;;;;;;;4.03;2.30;;;;;;;;;;5061314;28;20053;-79
2022/10/31 05:51:48;;;;;;;5.55;1.80;;;;;;;;;;5062540;28;20128;-78
2022/10/31 05:54:16;;;;;;;3.45;1.75;;;;;;;;;;5061807;28;20041;-78
2022/10/31 05:56:42;;;;;;;7.70;2.08;;;;;;;;;;5049001;28;20044;-78
2022/10/31 05:59:08;;;;;;;5.15;2.20;;;;;;;;;;5068537;28;20771;-78
2022/10/31 06:01:34;;;;;;;2.30;1.60;;;;;;;;;;5053469;28;20079;-78
2022/10/31 06:04:00;;;;;;;6.22;1.60;;;;;;;;;;5054535;28;20091;-78
2022/10/31 06:06:31;;;;;;;5.22;1.73;;;;;;;;;;5071292;28;20046;-77
2022/10/31 06:08:58;;;;;;;4.57;2.28;;;;;;;;;;5047633;28;20045;-78
2022/10/31 06:11:24;;;;;;;4.53;2.20;;;;;;;;;;5072158;28;20914;-78
2022/10/31 06:13:50;;;;;;;4.35;2.80;;;;;;;;;;5071616;28;20075;-78
2022/10/31 06:16:16;;;;;;;4.25;1.95;;;;;;;;;;5073558;28;20037;-77
2022/10/31 06:18:42;;;;;;;4.70;2.60;;;;;;;;;;5070711;28;20045;-79
2022/10/31 06:21:08;;;;;;;6.10;2.53;;;;;;;;;;5072807;28;20064;-78
2022/10/31 06:23:34;;;;;;;4.60;2.90;;;;;;;;;;5048459;28;20091;-77
2022/10/31 06:26:00;;;;;;;4.15;2.17;;;;;;;;;;5071591;28;20083;-78
2022/10/31 06:28:26;;;;;;;6.47;2.50;;;;;;;;;;5067570;28;20099;-78
2022/10/31 06:30:53;;;;;;;3.85;2.20;;;;;;;;;;5037260;28;20045;-78
2022/10/31 06:33:19;;;;;;;5.25;1.95;;;;;;;;;;5060530;28;21166;-77
2022/10/31 06:35:46;;;;;;;5.55;2.88;;;;;;;;;;5061404;28;20043;-78
2022/10/31 06:38:12;;;;;;;4.25;2.13;;;;;;;;;;5042819;28;20045;-78
2022/10/31 06:40:38;;;;;;;4.90;2.65;;;;;;;;;;5043862;28;20045;-78
2022/10/31 06:43:04;;;;;;;9.07;2.60;;;;;;;;;;5043799;28;20040;-79
2022/10/31 06:45:30;;;;;;;6.45;2.63;;;;;;;;;;5062273;28;20044;-78
2022/10/31 06:47:57;;;;;;;3.63;2.03;;;;;;;;;;5058759;28;20037;-78
2022/10/31 06:50:23;;;;;;;5.55;2.20;;;;;;;;;;5036419;28;20590;-78
2022/10/31 06:52:55;;;;;;;7.78;2.53;;;;;;;;;;5060852;28;20097;-77
2022/10/31 06:55:24;;;;;;;4.22;2.88;;;;;;;;;;5058552;28;20038;-78
2022/10/31 06:57:54;;;;;;;3.53;2.10;;;;;;;;;;5061791;28;20048;-78
2022/10/31 07:00:21;;;;;;;7.03;2.45;;;;;;;;;;5059862;28;20064;-78
2022/10/31 07:02:54;;;;;;;2.90;2.22;;;;;;;;;;5060961;28;20586;-78
2022/10/31 07:05:20;;;;;;;6.20;2.80;;;;;;;;;;5060954;28;20052;-78
2022/10/31 07:07:48;;;;;;;6.53;2.60;;;;;;;;;;5060191;28;20045;-78
2022/10/31 07:10:14;;;;;;;5.63;2.55;;;;;;;;;;5058737;28;20106;-78
2022/10/31 07:12:40;;;;;;;9.57;2.85;;;;;;;;;;5036152;28;20069;-78
2022/10/31 07:15:07;;;;;;;6.03;2.97;;;;;;;;;;5059688;28;20049;-78
2022/10/31 07:17:39;;;;;;;5.30;3.40;;;;;;;;;;5060555;28;20935;-78
2022/10/31 07:20:10;;;;;;;;;;;;;;;;;;5059804;28;20618;-78
2022/10/31 07:22:36;;;;;;;5.82;3.55;;;;;;;;;;5061874;28;19921;-78
2022/10/31 07:25:02;;;;;;;8.57;2.67;;;;;;;;;;5059876;28;20116;-78
2022/10/31 07:27:28;;;;;;;4.93;2.72;;;;;;;;;;5060533;28;20043;-78
2022/10/31 07:29:55;;;;;;;9.30;3.55;;;;;;;;;;5059869;28;20584;-78
2022/10/31 07:32:21;;;;;;;8.10;3.70;;;;;;;;;;5060780;28;20494;-78
2022/10/31 07:34:47;;;;;;;6.53;3.17;;;;;;;;;;5040902;28;20623;-77
2022/10/31 07:37:13;;;;;;;6.55;2.92;;;;;;;;;;5041911;28;20056;-78
2022/10/31 07:39:39;;;;;;;8.25;2.97;;;;;;;;;;5059819;28;20044;-78
2022/10/31 07:42:05;;;;;;;5.32;2.70;;;;;;;;;;5041482;28;20043;-78
2022/10/31 07:44:31;;;;;;;8.60;3.00;;;;;;;;;;5040575;28;20072;-77
2022/10/31 07:46:57;;;;;;;6.82;3.47;;;;;;;;;;5042006;28;20048;-77
2022/10/31 07:49:25;;;;;;;6.53;3.20;;;;;;;;;;5034183;28;20045;-77
2022/10/31 07:51:51;;;;;;;6.60;3.45;;;;;;;;;;5059431;28;20047;-77
2022/10/31 07:54:19;;;;;;;8.73;3.53;;;;;;;;;;5041257;28;20124;-77
2022/10/31 07:56:46;;;;;;;7.97;3.75;;;;;;;;;;5060332;28;20071;-78
2022/10/31 07:59:13;;;;;;;6.95;2.88;;;;;;;;;;5059413;28;20127;-78
2022/10/31 08:01:39;;;;;;;4.80;2.88;;;;;;;;;;5057679;28;20533;-77
2022/10/31 08:04:05;;;;;;;10.82;4.53;;;;;;;;;;5057877;28;20037;-77
2022/10/31 08:06:31;;;;;;;8.25;3.38;;;;;;;;;;5059575;28;20140;-78
2022/10/31 08:08:57;;;;;;;7.82;3.47;;;;;;;;;;5040513;28;20045;-77
2022/10/31 08:11:24;;;;;;;8.48;3.80;;;;;;;;;;5057214;28;20566;-78
2022/10/31 08:13:50;;;;;;;8.73;3.33;;;;;;;;;;5058765;28;20078;-77
2022/10/31 08:16:16;;;;;;;8.00;3.60;;;;;;;;;;5058793;28;20037;-75
2022/10/31 08:18:42;;;;;;;8.60;3.42;;;;;;;;;;5034180;28;20051;-76
2022/10/31 08:21:08;;;;;;;7.22;4.20;;;;;;;;;;5057892;28;20037;-77
2022/10/31 08:23:34;;;;;;;6.03;3.72;;;;;;;;;;5058285;28;20041;-77
2022/10/31 08:26:00;;;;;;;11.43;4.13;;;;;;;;;;5034343;28;20045;-76
2022/10/31 08:28:26;;;;;;;9.30;4.35;;;;;;;;;;5032966;28;20072;-76
2022/10/31 08:30:52;;;;;;;8.45;4.47;;;;;;;;;;5058222;28;20128;-78
2022/10/31 08:33:19;;;;;;;11.00;3.85;;;;;;;;;;5058392;28;20047;-77
2022/10/31 08:35:45;;;;;;;11.98;4.53;;;;;;;;;;5055698;28;20053;-77
2022/10/31 08:38:12;;;;;;;7.18;4.45;;;;;;;;;;5058359;28;20041;-77
2022/10/31 08:40:38;;;;;;;10.30;4.35;;;;;;;;;;5039914;28;20130;-78
2022/10/31 08:43:06;;;;;;;9.40;4.53;;;;;;;;;;5039865;28;20083;-78
2022/10/31 08:45:33;;;;;;;12.27;4.00;;;;;;;;;;5056439;28;20041;-77
2022/10/31 08:48:00;;;;;;;9.27;4.38;;;;;;;;;;5057819;28;20122;-79
2022/10/31 08:50:27;;;;;;;10.38;3.80;;;;;;;;;;5057039;28;20467;-79
2022/10/31 08:52:53;;;;;;;13.85;5.65;;;;;;;;;;5059769;28;20049;-78
2022/10/31 08:55:20;;;;;;;10.15;4.63;;;;;;;;;;5032763;28;20526;-78
2022/10/31 08:57:47;;;;;;;11.25;4.35;;;;;;;;;;5039460;28;20068;-78
2022/10/31 09:00:13;;;;;;;10.98;4.80;;;;;;;;;;5057147;28;20053;-78
2022/10/31 09:02:39;;;;;;;12.98;6.05;;;;;;;;;;5058402;28;20045;-78
2022/10/31 09:05:06;;;;;;;13.27;4.75;;;;;;;;;;5058447;28;20052;-79
2022/10/31 09:07:32;;;;;;;13.38;4.93;;;;;;;;;;5033927;28;20056;-77
2022/10/31 09:09:58;;;;;;;12.80;4.57;;;;;;;;;;5058756;28;20511;-77
2022/10/31 09:12:24;;;;;;;8.05;5.00;;;;;;;;;;5059856;28;20040;-77
2022/10/31 09:14:50;;;;;;;8.90;4.90;;;;;;;;;;5034464;28;20045;-77
2022/10/31 09:17:19;;;;;;;11.93;4.95;;;;;;;;;;5060321;28;20179;-76
2022/10/31 09:19:45;;;;;;;8.88;5.18;;;;;;;;;;5041206;28;20065;-78
2022/10/31 09:22:11;;;;;;;10.10;6.25;;;;;;;;;;5034344;28;20086;-77
2022/10/31 09:24:39;;;;;;;15.40;5.68;;;;;;;;;;5062938;28;20080;-77
2022/10/31 09:27:06;;;;;;;7.40;4.65;;;;;;;;;;5060301;28;20378;-77
2022/10/31 09:29:32;;;;;;;19.20;5.97;;;;;;;;;;5060480;28;20045;-77
2022/10/31 09:31:58;;;;;;;9.13;5.70;;;;;;;;;;5062297;28;20041;-76
2022/10/31 09:34:24;;;;;;;12.55;6.28;;;;;;;;;;5059873;28;20048;-76
2022/10/31 09:36:50;;;;;;;11.65;4.45;;;;;;;;;;5033845;28;20098;-76
2022/10/31 09:39:16;;;;;;;18.00;5.85;;;;;;;;;;5033652;28;20095;-75
2022/10/31 09:42:00;;;;;;;13.48;6.00;;;;;;;;;;5033621;28;20120;-78
2022/10/31 09:44:49;;;;;;;11.32;5.05;;;;;;;;;;5058771;28;20041;-77
2022/10/31 09:47:22;;;;;;;12.75;5.97;;;;;;;;;;5059520;28;20045;-77
2022/10/31 09:50:00;;;;;;;13.85;6.28;;;;;;;;;;5058152;28;20042;-78
2022/10/31 09:52:33;;;;;;;13.88;8.00;;;;;;;;;;5040804;28;20041;-77
2022/10/31 09:55:05;;;;;;;12.10;6.57;;;;;;;;;;5040770;28;20133;-78
2022/10/31 09:57:37;;;;;;;12.68;6.20;;;;;;;;;;5058749;28;20048;-77
2022/10/31 10:00:06;;;;;;;12.65;5.57;;;;;;;;;;5058937;28;20162;-77
2022/10/31 10:02:38;;;;;;;10.70;5.75;;;;;;;;;;5059045;28;20048;-78
2022/10/31 10:05:10;;;;;;;11.23;5.65;;;;;;;;;;5057640;28;20546;-77
2022/10/31 10:07:52;;;;;;;11.68;6.68;;;;;;;;;;5058364;28;20052;-78
2022/10/31 10:10:18;;;;;;;;;;;;;;;;;;5041560;28;20048;-78
2022/10/31 10:12:57;;;;;;;14.10;6.78;;;;;;;;;;5057341;28;19956;-78
2022/10/31 10:15:26;;;;;;;10.48;6.78;;;;;;;;;;5058481;28;20041;-77
2022/10/31 10:18:00;;;;;;;13.95;5.90;;;;;;;;;;5057731;28;20088;-76
2022/10/31 10:20:26;;;;;;;14.98;6.00;;;;;;;;;;5057674;28;20037;-77
2022/10/31 10:23:10;;;;;;;13.77;6.18;;;;;;;;;;5058060;28;20045;-77
2022/10/31 10:25:40;;;;;;;13.13;6.40;;;;;;;;;;5033546;28;20763;-78
2022/10/31 10:28:38;;;;;;;15.95;7.28;;;;;;;;;;5069527;28;20041;-77
2022/10/31 10:31:04;;;;;;;12.18;5.90;;;;;;;;;;5041695;28;20060;-77
2022/10/31 10:33:33;;;;;;;10.35;6.38;;;;;;;;;;5063564;28;20678;-78
2022/10/31 10:36:00;;;;;;;12.57;6.50;;;;;;;;;;5040348;28;20045;-78
2022/10/31 10:38:38;;;;;;;9.75;6.30;;;;;;;;;;5058137;28;20501;-78
2022/10/31 10:41:07;;;;;;;16.08;6.10;;;;;;;;;;5059222;28;20052;-79
2022/10/31 10:43:36;;;;;;;15.25;6.20;;;;;;;;;;5059695;28;20068;-78
2022/10/31 10:49:11;;;;;;;10.38;6.15;;;;;;;;;;5058165;28;20041;-78
2022/10/31 10:52:00;;;;;;;12.15;5.85;;;;;;;;;;5040371;28;20060;-78
2022/10/31 10:54:42;;;;;;;13.15;7.13;;;;;;;;;;5048769;28;20530;-78
2022/10/31 10:57:28;;;;;;;13.68;6.07;;;;;;;;;;5059318;28;20049;-78
2022/10/31 10:59:54;;;;;;;17.85;5.88;;;;;;;;;;5060351;28;20121;-78
2022/10/31 11:02:25;;;;;;;9.07;5.57;;;;;;;;;;5062841;28;20052;-78
2022/10/31 11:04:53;;;;;;;10.32;6.30;;;;;;;;;;5061180;28;20052;-78
2022/10/31 11:07:19;;;;;;;11.30;5.35;;;;;;;;;;5043706;28;20069;-78
2022/10/31 11:09:46;;;;;;;9.52;5.70;;;;;;;;;;5036357;28;20124;-78
2022/10/31 11:12:21;;;;;;;12.95;7.47;;;;;;;;;;5061104;28;20033;-78
2022/10/31 11:14:48;;;;;;;11.27;6.55;;;;;;;;;;5062404;28;20041;-78
2022/10/31 11:17:20;;;;;;;23.95;9.13;;;;;;;;;;5061231;28;20037;-78
2022/10/31 11:19:47;;;;;;;12.82;6.25;;;;;;;;;;5037057;28;20049;-78
2022/10/31 11:22:17;;;;;;;12.43;6.63;;;;;;;;;;5061734;28;20064;-79
2022/10/31 11:24:44;;;;;;;8.85;5.90;;;;;;;;;;5061666;28;20052;-79
2022/10/31 11:27:14;;;;;;;16.33;6.78;;;;;;;;;;5061969;28;20045;-78
2022/10/31 11:29:40;;;;;;;19.15;6.97;;;;;;;;;;5043033;28;20045;-79
2022/10/31 11:32:16;;;;;;;13.95;6.13;;;;;;;;;;5036921;28;20037;-78
2022/10/31 11:34:47;;;;;;;13.70;6.03;;;;;;;;;;5061322;28;20045;-78
2022/10/31 11:37:17;;;;;;;12.15;5.50;;;;;;;;;;5043513;28;20033;-78
2022/10/31 11:39:53;;;;;;;10.90;5.72;;;;;;;;;;5043067;28;20116;-78
2022/10/31 11:42:22;;;;;;;10.75;6.90;;;;;;;;;;5060399;28;20581;-78
2022/10/31 11:44:48;;;;;;;15.18;6.72;;;;;;;;;;5043012;28;20068;-78
2022/10/31 11:47:15;;;;;;;15.07;6.65;;;;;;;;;;5035087;28;20055;-78
2022/10/31 11:49:42;;;;;;;12.98;7.22;;;;;;;;;;5062176;28;20037;-78
2022/10/31 11:52:13;;;;;;;12.07;6.00;;;;;;;;;;5043248;28;20045;-78
2022/10/31 11:54:46;;;;;;;8.98;5.55;;;;;;;;;;5061643;28;20095;-78
2022/10/31 11:57:27;;;;;;;13.65;6.82;;;;;;;;;;5042591;28;20064;-78
2022/10/31 11:59:57;;;;;;;13.07;5.75;;;;;;;;;;5042261;28;20602;-78
2022/10/31 12:02:24;;;;;;;15.98;6.88;;;;;;;;;;5042662;28;20047;-78
2022/10/31 12:05:09;;;;;;;10.38;6.03;;;;;;;;;;5059017;28;20123;-78
2022/10/31 12:07:35;;;;;;;18.38;8.35;;;;;;;;;;5042702;28;20073;-78
2022/10/31 12:10:01;;;;;;;12.27;7.40;;;;;;;;;;5060610;28;20045;-78
2022/10/31 12:12:34;;;;;;;11.55;5.82;;;;;;;;;;5035789;28;20044;-78
2022/10/31 12:15:19;;;;;;;15.27;7.15;;;;;;;;;;5061357;28;20581;-78
2022/10/31 12:17:49;;;;;;;14.75;6.57;;;;;;;;;;5061343;28;20052;-79
2022/10/31 12:20:18;;;;;;;12.60;6.03;;;;;;;;;;5036820;28;20454;-78
2022/10/31 12:22:50;;;;;;;17.88;6.30;;;;;;;;;;5042070;28;20048;-78
2022/10/31 12:25:16;;;;;;;12.23;5.72;;;;;;;;;;5060878;28;20156;-78
2022/10/31 12:28:01;;;;;;;11.73;6.43;;;;;;;;;;5060294;28;20045;-78
2022/10/31 12:30:45;;;;;;;10.75;6.30;;;;;;;;;;5059884;28;20067;-79
2022/10/31 12:33:11;;;;;;;16.13;6.57;;;;;;;;;;5060596;28;20048;-79
2022/10/31 12:36:01;;;;;;;17.65;6.43;;;;;;;;;;5060211;28;20134;-78
2022/10/31 12:38:33;;;;;;;10.73;6.00;;;;;;;;;;5041510;28;20045;-79
2022/10/31 12:41:24;;;;;;;18.77;7.53;;;;;;;;;;5060112;28;20048;-79
2022/10/31 12:44:07;;;;;;;14.10;6.73;;;;;;;;;;5062828;28;20056;-78
2022/10/31 12:46:54;;;;;;;12.27;6.05;;;;;;;;;;5061852;28;20041;-78
2022/10/31 12:49:23;;;;;;;12.77;6.03;;;;;;;;;;5059020;28;20616;-78
2022/10/31 12:51:50;;;;;;;11.52;6.03;;;;;;;;;;5061926;28;20618;-77
2022/10/31 12:54:22;;;;;;;12.00;5.22;;;;;;;;;;5059491;28;20048;-78
2022/10/31 12:56:48;;;;;;;11.18;5.45;;;;;;;;;;5034297;28;20043;-77
2022/10/31 12:59:14;;;;;;;12.65;6.47;;;;;;;;;;5039776;28;20065;-77
2022/10/31 13:01:47;;;;;;;13.75;5.35;;;;;;;;;;5057687;28;20991;-78
2022/10/31 13:04:17;;;;;;;9.48;5.55;;;;;;;;;;5058810;28;20045;-78
2022/10/31 13:06:47;;;;;;;11.80;5.88;;;;;;;;;;5042096;28;20178;-78
2022/10/31 13:09:26;;;;;;;13.60;5.70;;;;;;;;;;5059587;28;20049;-78
2022/10/31 13:11:56;;;;;;;14.05;6.68;;;;;;;;;;5041619;28;20037;-78
2022/10/31 13:14:22;;;;;;;9.88;5.05;;;;;;;;;;5060190;28;20099;-78
2022/10/31 13:16:48;;;;;;;15.45;6.20;;;;;;;;;;5058646;28;20052;-78
2022/10/31 13:19:19;;;;;;;13.23;5.68;;;;;;;;;;5041869;28;20044;-78
2022/10/31 13:21:45;;;;;;;12.52;5.57;;;;;;;;;;5059858;28;20136;-78
2022/10/31 13:24:20;;;;;;;10.52;5.60;;;;;;;;;;5034898;28;20053;-77
2022/10/31 13:26:49;;;;;;;12.60;6.07;;;;;;;;;;5059720;28;20124;-77
2022/10/31 13:29:27;;;;;;;15.52;5.68;;;;;;;;;;5039975;28;20045;-78
2022/10/31 13:31:54;;;;;;;11.75;6.20;;;;;;;;;;5041655;28;20542;-77
2022/10/31 13:34:32;;;;;;;9.18;4.80;;;;;;;;;;5059451;28;20179;-79
2022/10/31 13:37:15;;;;;;;17.23;6.72;;;;;;;;;;5034145;28;20287;-78
2022/10/31 13:40:04;;;;;;;13.82;6.45;;;;;;;;;;5041712;28;20414;-78
2022/10/31 13:43:08;;;;;;;19.30;6.72;;;;;;;;;;5059575;28;20049;-78
2022/10/31 13:45:34;;;;;;;13.20;5.47;;;;;;;;;;4988279;28;20205;-78
2022/10/31 13:48:16;;;;;;;15.23;5.57;;;;;;;;;;4987583;28;20169;-78
2022/10/31 13:50:42;;;;;;;;;;;;;;;;;;5016185;28;20541;-79
2022/10/31 13:53:23;;;;;;;11.77;5.00;;;;;;;;;;5060044;28;19927;-77
2022/10/31 13:56:02;;;;;;;9.68;5.82;;;;;;;;;;5059102;28;20041;-78
2022/10/31 13:58:32;;;;;;;20.55;6.03;;;;;;;;;;5057862;28;20485;-77
2022/10/31 14:01:10;;;;;;;13.95;5.85;;;;;;;;;;5058992;28;20053;-77
2022/10/31 14:03:37;;;;;;;13.18;5.28;;;;;;;;;;5060167;28;20067;-78
2022/10/31 14:06:06;;;;;;;13.20;6.70;;;;;;;;;;5041253;28;20049;-78
2022/10/31 14:08:35;;;;;;;17.60;7.47;;;;;;;;;;5040868;28;20037;-78
2022/10/31 14:11:01;;;;;;;14.75;5.90;;;;;;;;;;5040017;28;20612;-78
2022/10/31 14:13:27;;;;;;;10.25;5.93;;;;;;;;;;5059332;28;20041;-77
2022/10/31 14:15:55;;;;;;;8.63;4.90;;;;;;;;;;5058746;28;20614;-78
2022/10/31 14:18:42;;;;;;;14.20;6.13;;;;;;;;;;5058518;28;20041;-78
2022/10/31 14:21:23;;;;;;;10.50;4.93;;;;;;;;;;5058045;28;20558;-78
2022/10/31 14:23:50;;;;;;;9.98;5.28;;;;;;;;;;5058925;28;20041;-78
2022/10/31 14:26:19;;;;;;;10.40;5.28;;;;;;;;;;5058508;28;20120;-78
2022/10/31 14:28:46;;;;;;;15.52;7.30;;;;;;;;;;5061209;28;20040;-78
2022/10/31 14:31:33;;;;;;;17.35;5.30;;;;;;;;;;5061730;28;20049;-78
2022/10/31 14:34:15;;;;;;;10.48;5.70;;;;;;;;;;5062570;28;20127;-78
2022/10/31 14:36:50;;;;;;;16.48;7.05;;;;;;;;;;5037740;28;20045;-78
2022/10/31 14:39:20;;;;;;;12.70;4.93;;;;;;;;;;5062060;28;20775;-78
2022/10/31 14:41:52;;;;;;;13.23;5.35;;;;;;;;;;5062414;28;20124;-77
2022/10/31 14:44:37;;;;;;;11.77;5.68;;;;;;;;;;5044918;28;20045;-80
2022/10/31 14:47:09;;;;;;;12.80;5.85;;;;;;;;;;5063579;28;20573;-79
2022/10/31 14:49:38;;;;;;;8.93;5.30;;;;;;;;;;5045823;28;20136;-79
2022/10/31 14:52:07;;;;;;;14.88;6.95;;;;;;;;;;5062872;28;20041;-78
2022/10/31 14:54:35;;;;;;;16.35;5.47;;;;;;;;;;5061730;28;20120;-78